Plessisville, Canada
Current Conditions -  °F | °C
As of 5:00 AM on Tuesday 21 Oct 2014 (Local Time) from CYQB Reporting Station
Few Clouds Few Clouds  
Wind Chill:   Ceiling: Unl
Heat Index:   Visibility: 15mi
Dew Point: -2°   Wind: 3mph
Humidity: 81%   Direction: 350°N
Pressure: 30.02"   Gusts: NA
Location:  46.22°N, 71.77°W
Report Text: CYQB 210900Z 35003KT 15SM FEW070 FEW130 01/M02 A3002 RMK AC1AC1 SLP169
Loading
Personal Weather Stations






























Interactive Weather Map
Tropical Storm Tracking
New forecast layout! Learn more

10-Day Weather Forecast

Advertisements
Track Severe Weather on mobile